sensor_id;sensor_type;location;lat;lon;timestamp;P1;durP1;ratioP1;P2;durP2;ratioP2
57826;SDS011;43656;57.746;11.780;2023-07-29T00:00:52;9.63;;;3.22;;
57826;SDS011;43656;57.746;11.780;2023-07-29T00:03:17;4.20;;;2.58;;
57826;SDS011;43656;57.746;11.780;2023-07-29T00:05:43;5.20;;;3.13;;
57826;SDS011;43656;57.746;11.780;2023-07-29T00:08:08;5.28;;;2.83;;
57826;SDS011;43656;57.746;11.780;2023-07-29T00:10:37;4.18;;;2.42;;
57826;SDS011;43656;57.746;11.780;2023-07-29T00:13:03;4.75;;;2.60;;
57826;SDS011;43656;57.746;11.780;2023-07-29T00:15:29;3.85;;;2.72;;
57826;SDS011;43656;57.746;11.780;2023-07-29T00:17:55;4.22;;;2.33;;
57826;SDS011;43656;57.746;11.780;2023-07-29T00:20:21;9.13;;;2.95;;
57826;SDS011;43656;57.746;11.780;2023-07-29T00:22:46;5.07;;;2.60;;
57826;SDS011;43656;57.746;11.780;2023-07-29T00:25:11;3.55;;;2.55;;
57826;SDS011;43656;57.746;11.780;2023-07-29T00:27:37;4.80;;;2.70;;
57826;SDS011;43656;57.746;11.780;2023-07-29T00:30:03;5.20;;;2.92;;
57826;SDS011;43656;57.746;11.780;2023-07-29T00:32:29;5.07;;;2.60;;
57826;SDS011;43656;57.746;11.780;2023-07-29T00:34:55;4.95;;;2.67;;
57826;SDS011;43656;57.746;11.780;2023-07-29T00:37:20;3.90;;;2.92;;
57826;SDS011;43656;57.746;11.780;2023-07-29T00:39:46;4.78;;;2.78;;
57826;SDS011;43656;57.746;11.780;2023-07-29T00:42:11;5.75;;;2.80;;
57826;SDS011;43656;57.746;11.780;2023-07-29T00:44:37;4.43;;;2.83;;
57826;SDS011;43656;57.746;11.780;2023-07-29T00:47:02;8.75;;;3.10;;
57826;SDS011;43656;57.746;11.780;2023-07-29T00:49:29;4.20;;;2.60;;
57826;SDS011;43656;57.746;11.780;2023-07-29T00:51:56;3.78;;;2.60;;
57826;SDS011;43656;57.746;11.780;2023-07-29T00:54:21;4.38;;;2.60;;
57826;SDS011;43656;57.746;11.780;2023-07-29T00:56:47;5.10;;;2.40;;
57826;SDS011;43656;57.746;11.780;2023-07-29T00:59:12;5.20;;;2.75;;
57826;SDS011;43656;57.746;11.780;2023-07-29T01:01:38;3.97;;;3.03;;
57826;SDS011;43656;57.746;11.780;2023-07-29T01:04:03;4.28;;;2.47;;
57826;SDS011;43656;57.746;11.780;2023-07-29T01:09:07;4.25;;;2.53;;
57826;SDS011;43656;57.746;11.780;2023-07-29T01:11:45;3.47;;;2.67;;
57826;SDS011;43656;57.746;11.780;2023-07-29T01:14:32;5.55;;;2.80;;
57826;SDS011;43656;57.746;11.780;2023-07-29T01:17:06;5.15;;;2.70;;
57826;SDS011;43656;57.746;11.780;2023-07-29T01:22:26;5.20;;;2.63;;
57826;SDS011;43656;57.746;11.780;2023-07-29T01:24:52;5.03;;;2.88;;
57826;SDS011;43656;57.746;11.780;2023-07-29T01:27:18;4.88;;;2.88;;
57826;SDS011;43656;57.746;11.780;2023-07-29T01:29:43;4.28;;;2.90;;
57826;SDS011;43656;57.746;11.780;2023-07-29T01:32:17;4.65;;;2.88;;
57826;SDS011;43656;57.746;11.780;2023-07-29T01:34:55;4.45;;;3.05;;
57826;SDS011;43656;57.746;11.780;2023-07-29T01:37:26;4.80;;;2.78;;
57826;SDS011;43656;57.746;11.780;2023-07-29T01:39:56;5.05;;;2.72;;
57826;SDS011;43656;57.746;11.780;2023-07-29T01:42:24;3.03;;;2.60;;
57826;SDS011;43656;57.746;11.780;2023-07-29T01:44:50;5.47;;;2.75;;
57826;SDS011;43656;57.746;11.780;2023-07-29T01:47:15;4.78;;;2.83;;
57826;SDS011;43656;57.746;11.780;2023-07-29T01:49:41;3.92;;;2.67;;
57826;SDS011;43656;57.746;11.780;2023-07-29T01:52:06;4.22;;;2.40;;
57826;SDS011;43656;57.746;11.780;2023-07-29T01:54:32;5.25;;;3.03;;
57826;SDS011;43656;57.746;11.780;2023-07-29T01:56:57;5.00;;;2.92;;
57826;SDS011;43656;57.746;11.780;2023-07-29T01:59:23;5.85;;;3.00;;
57826;SDS011;43656;57.746;11.780;2023-07-29T02:01:48;5.20;;;3.20;;
57826;SDS011;43656;57.746;11.780;2023-07-29T02:04:14;5.07;;;3.30;;
57826;SDS011;43656;57.746;11.780;2023-07-29T02:06:39;6.55;;;3.40;;
57826;SDS011;43656;57.746;11.780;2023-07-29T02:09:04;5.15;;;3.05;;
57826;SDS011;43656;57.746;11.780;2023-07-29T02:11:30;4.93;;;3.25;;
57826;SDS011;43656;57.746;11.780;2023-07-29T02:13:55;4.47;;;2.67;;
57826;SDS011;43656;57.746;11.780;2023-07-29T02:16:21;3.60;;;2.80;;
57826;SDS011;43656;57.746;11.780;2023-07-29T02:18:50;4.60;;;3.40;;
57826;SDS011;43656;57.746;11.780;2023-07-29T02:21:16;4.13;;;2.80;;
57826;SDS011;43656;57.746;11.780;2023-07-29T02:23:41;3.58;;;2.90;;
57826;SDS011;43656;57.746;11.780;2023-07-29T02:26:07;5.60;;;3.30;;
57826;SDS011;43656;57.746;11.780;2023-07-29T02:28:32;8.00;;;3.70;;
57826;SDS011;43656;57.746;11.780;2023-07-29T02:31:31;7.25;;;3.58;;
57826;SDS011;43656;57.746;11.780;2023-07-29T02:33:50;6.82;;;3.50;;
57826;SDS011;43656;57.746;11.780;2023-07-29T02:36:16;8.80;;;3.47;;
57826;SDS011;43656;57.746;11.780;2023-07-29T02:38:42;5.07;;;3.58;;
57826;SDS011;43656;57.746;11.780;2023-07-29T02:41:08;4.78;;;3.50;;
57826;SDS011;43656;57.746;11.780;2023-07-29T02:43:34;7.70;;;3.83;;
57826;SDS011;43656;57.746;11.780;2023-07-29T02:46:02;4.38;;;3.72;;
57826;SDS011;43656;57.746;11.780;2023-07-29T02:48:28;4.20;;;3.30;;
57826;SDS011;43656;57.746;11.780;2023-07-29T02:50:53;4.53;;;3.47;;
57826;SDS011;43656;57.746;11.780;2023-07-29T02:53:19;5.05;;;3.95;;
57826;SDS011;43656;57.746;11.780;2023-07-29T02:55:45;6.40;;;3.35;;
57826;SDS011;43656;57.746;11.780;2023-07-29T02:58:10;7.60;;;3.85;;
57826;SDS011;43656;57.746;11.780;2023-07-29T03:00:36;5.18;;;3.92;;
57826;SDS011;43656;57.746;11.780;2023-07-29T03:03:01;4.72;;;4.07;;
57826;SDS011;43656;57.746;11.780;2023-07-29T03:05:27;4.78;;;3.80;;
57826;SDS011;43656;57.746;11.780;2023-07-29T03:07:53;7.15;;;4.07;;
57826;SDS011;43656;57.746;11.780;2023-07-29T03:10:18;6.63;;;3.78;;
57826;SDS011;43656;57.746;11.780;2023-07-29T03:12:44;5.20;;;3.95;;
57826;SDS011;43656;57.746;11.780;2023-07-29T03:15:09;4.72;;;3.80;;
57826;SDS011;43656;57.746;11.780;2023-07-29T03:17:34;7.85;;;3.88;;
57826;SDS011;43656;57.746;11.780;2023-07-29T03:20:00;5.82;;;3.83;;
57826;SDS011;43656;57.746;11.780;2023-07-29T03:22:27;4.80;;;3.33;;
57826;SDS011;43656;57.746;11.780;2023-07-29T03:24:52;6.28;;;3.90;;
57826;SDS011;43656;57.746;11.780;2023-07-29T03:27:17;4.85;;;3.97;;
57826;SDS011;43656;57.746;11.780;2023-07-29T03:29:43;10.00;;;4.50;;
57826;SDS011;43656;57.746;11.780;2023-07-29T03:32:08;8.82;;;4.15;;
57826;SDS011;43656;57.746;11.780;2023-07-29T03:34:34;5.18;;;3.85;;
57826;SDS011;43656;57.746;11.780;2023-07-29T03:37:01;5.25;;;4.30;;
57826;SDS011;43656;57.746;11.780;2023-07-29T03:39:26;6.72;;;4.10;;
57826;SDS011;43656;57.746;11.780;2023-07-29T03:41:52;5.95;;;4.18;;
57826;SDS011;43656;57.746;11.780;2023-07-29T03:44:17;7.05;;;4.13;;
57826;SDS011;43656;57.746;11.780;2023-07-29T03:46:43;5.25;;;3.78;;
57826;SDS011;43656;57.746;11.780;2023-07-29T03:49:09;10.63;;;4.05;;
57826;SDS011;43656;57.746;11.780;2023-07-29T03:51:35;7.45;;;3.80;;
57826;SDS011;43656;57.746;11.780;2023-07-29T03:54:01;8.43;;;3.92;;
57826;SDS011;43656;57.746;11.780;2023-07-29T03:56:26;7.22;;;4.10;;
57826;SDS011;43656;57.746;11.780;2023-07-29T03:58:52;8.68;;;3.83;;
57826;SDS011;43656;57.746;11.780;2023-07-29T04:01:18;7.20;;;4.22;;
57826;SDS011;43656;57.746;11.780;2023-07-29T04:03:44;6.13;;;4.00;;
57826;SDS011;43656;57.746;11.780;2023-07-29T04:06:11;4.80;;;3.95;;
57826;SDS011;43656;57.746;11.780;2023-07-29T04:08:37;5.90;;;4.18;;
57826;SDS011;43656;57.746;11.780;2023-07-29T04:11:02;5.75;;;4.18;;
57826;SDS011;43656;57.746;11.780;2023-07-29T04:13:28;5.65;;;3.95;;
57826;SDS011;43656;57.746;11.780;2023-07-29T04:15:53;5.63;;;3.45;;
57826;SDS011;43656;57.746;11.780;2023-07-29T04:18:18;5.25;;;3.60;;
57826;SDS011;43656;57.746;11.780;2023-07-29T04:20:44;4.80;;;3.58;;
57826;SDS011;43656;57.746;11.780;2023-07-29T04:23:09;6.75;;;4.15;;
57826;SDS011;43656;57.746;11.780;2023-07-29T04:25:35;6.88;;;3.90;;
57826;SDS011;43656;57.746;11.780;2023-07-29T04:28:00;6.13;;;4.00;;
57826;SDS011;43656;57.746;11.780;2023-07-29T04:30:28;6.57;;;4.10;;
57826;SDS011;43656;57.746;11.780;2023-07-29T04:32:53;6.40;;;3.30;;
57826;SDS011;43656;57.746;11.780;2023-07-29T04:35:19;5.28;;;3.22;;
57826;SDS011;43656;57.746;11.780;2023-07-29T04:37:44;6.80;;;3.45;;
57826;SDS011;43656;57.746;11.780;2023-07-29T04:40:12;6.57;;;3.58;;
57826;SDS011;43656;57.746;11.780;2023-07-29T04:42:38;5.85;;;3.42;;
57826;SDS011;43656;57.746;11.780;2023-07-29T04:45:04;6.22;;;3.15;;
57826;SDS011;43656;57.746;11.780;2023-07-29T04:47:29;4.55;;;3.10;;
57826;SDS011;43656;57.746;11.780;2023-07-29T04:49:55;9.20;;;3.42;;
57826;SDS011;43656;57.746;11.780;2023-07-29T04:52:20;3.95;;;3.10;;
57826;SDS011;43656;57.746;11.780;2023-07-29T04:54:46;5.38;;;3.45;;
57826;SDS011;43656;57.746;11.780;2023-07-29T04:57:12;6.80;;;3.22;;
57826;SDS011;43656;57.746;11.780;2023-07-29T04:59:37;6.00;;;3.25;;
57826;SDS011;43656;57.746;11.780;2023-07-29T05:02:03;3.45;;;3.10;;
57826;SDS011;43656;57.746;11.780;2023-07-29T05:04:28;3.60;;;2.83;;
57826;SDS011;43656;57.746;11.780;2023-07-29T05:06:54;5.30;;;3.22;;
57826;SDS011;43656;57.746;11.780;2023-07-29T05:09:19;4.57;;;3.13;;
57826;SDS011;43656;57.746;11.780;2023-07-29T05:11:47;3.38;;;2.85;;
57826;SDS011;43656;57.746;11.780;2023-07-29T05:14:14;4.30;;;2.92;;
57826;SDS011;43656;57.746;11.780;2023-07-29T05:16:40;4.57;;;3.30;;
57826;SDS011;43656;57.746;11.780;2023-07-29T05:19:06;4.85;;;3.42;;
57826;SDS011;43656;57.746;11.780;2023-07-29T05:21:31;5.05;;;3.15;;
57826;SDS011;43656;57.746;11.780;2023-07-29T05:23:57;5.15;;;3.00;;
57826;SDS011;43656;57.746;11.780;2023-07-29T05:26:22;4.10;;;3.30;;
57826;SDS011;43656;57.746;11.780;2023-07-29T05:28:48;6.50;;;3.30;;
57826;SDS011;43656;57.746;11.780;2023-07-29T05:31:13;5.90;;;3.53;;
57826;SDS011;43656;57.746;11.780;2023-07-29T05:33:38;5.32;;;3.22;;
57826;SDS011;43656;57.746;11.780;2023-07-29T05:36:04;4.60;;;3.05;;
57826;SDS011;43656;57.746;11.780;2023-07-29T05:38:30;5.28;;;3.05;;
57826;SDS011;43656;57.746;11.780;2023-07-29T05:40:55;4.85;;;3.03;;
57826;SDS011;43656;57.746;11.780;2023-07-29T05:43:21;6.85;;;2.80;;
57826;SDS011;43656;57.746;11.780;2023-07-29T05:45:47;3.70;;;2.70;;
57826;SDS011;43656;57.746;11.780;2023-07-29T05:48:12;5.00;;;2.97;;
57826;SDS011;43656;57.746;11.780;2023-07-29T05:50:37;5.40;;;2.75;;
57826;SDS011;43656;57.746;11.780;2023-07-29T05:53:03;4.82;;;2.88;;
57826;SDS011;43656;57.746;11.780;2023-07-29T05:55:28;3.92;;;2.78;;
57826;SDS011;43656;57.746;11.780;2023-07-29T05:57:54;4.20;;;2.50;;
57826;SDS011;43656;57.746;11.780;2023-07-29T06:00:20;4.25;;;2.45;;
57826;SDS011;43656;57.746;11.780;2023-07-29T06:02:45;5.15;;;2.58;;
57826;SDS011;43656;57.746;11.780;2023-07-29T06:05:11;4.10;;;2.35;;
57826;SDS011;43656;57.746;11.780;2023-07-29T06:07:36;5.68;;;2.33;;
57826;SDS011;43656;57.746;11.780;2023-07-29T06:10:03;3.72;;;2.45;;
57826;SDS011;43656;57.746;11.780;2023-07-29T06:12:28;3.53;;;2.30;;
57826;SDS011;43656;57.746;11.780;2023-07-29T06:14:54;5.65;;;2.60;;
57826;SDS011;43656;57.746;11.780;2023-07-29T06:17:19;3.15;;;2.38;;
57826;SDS011;43656;57.746;11.780;2023-07-29T06:19:45;6.03;;;2.40;;
57826;SDS011;43656;57.746;11.780;2023-07-29T06:22:10;2.53;;;2.05;;
57826;SDS011;43656;57.746;11.780;2023-07-29T06:24:35;3.15;;;2.20;;
57826;SDS011;43656;57.746;11.780;2023-07-29T06:27:01;4.00;;;2.40;;
57826;SDS011;43656;57.746;11.780;2023-07-29T06:29:26;4.95;;;2.28;;
57826;SDS011;43656;57.746;11.780;2023-07-29T06:31:52;3.72;;;2.35;;
57826;SDS011;43656;57.746;11.780;2023-07-29T06:34:17;2.97;;;2.13;;
57826;SDS011;43656;57.746;11.780;2023-07-29T06:36:43;4.10;;;2.58;;
57826;SDS011;43656;57.746;11.780;2023-07-29T06:39:09;4.05;;;3.00;;
57826;SDS011;43656;57.746;11.780;2023-07-29T06:41:34;3.35;;;2.55;;
57826;SDS011;43656;57.746;11.780;2023-07-29T06:44:00;3.80;;;2.22;;
57826;SDS011;43656;57.746;11.780;2023-07-29T06:46:25;3.08;;;2.33;;
57826;SDS011;43656;57.746;11.780;2023-07-29T06:48:51;5.00;;;2.13;;
57826;SDS011;43656;57.746;11.780;2023-07-29T06:51:16;2.95;;;2.25;;
57826;SDS011;43656;57.746;11.780;2023-07-29T06:53:41;3.28;;;1.98;;
57826;SDS011;43656;57.746;11.780;2023-07-29T06:56:07;3.95;;;2.38;;
57826;SDS011;43656;57.746;11.780;2023-07-29T06:58:32;3.50;;;2.10;;
57826;SDS011;43656;57.746;11.780;2023-07-29T07:00:58;4.07;;;2.33;;
57826;SDS011;43656;57.746;11.780;2023-07-29T07:03:23;5.18;;;2.22;;
57826;SDS011;43656;57.746;11.780;2023-07-29T07:05:49;3.28;;;2.20;;
57826;SDS011;43656;57.746;11.780;2023-07-29T07:08:15;3.35;;;2.22;;
57826;SDS011;43656;57.746;11.780;2023-07-29T07:10:40;3.58;;;2.42;;
57826;SDS011;43656;57.746;11.780;2023-07-29T07:13:06;3.05;;;2.33;;
57826;SDS011;43656;57.746;11.780;2023-07-29T07:15:31;5.63;;;2.40;;
57826;SDS011;43656;57.746;11.780;2023-07-29T07:17:57;3.78;;;2.15;;
57826;SDS011;43656;57.746;11.780;2023-07-29T07:20:22;4.22;;;2.30;;
57826;SDS011;43656;57.746;11.780;2023-07-29T07:22:47;4.38;;;2.30;;
57826;SDS011;43656;57.746;11.780;2023-07-29T07:25:13;3.80;;;2.30;;
57826;SDS011;43656;57.746;11.780;2023-07-29T07:27:38;4.82;;;2.35;;
57826;SDS011;43656;57.746;11.780;2023-07-29T07:30:04;3.85;;;2.38;;
57826;SDS011;43656;57.746;11.780;2023-07-29T07:32:30;4.20;;;2.40;;
57826;SDS011;43656;57.746;11.780;2023-07-29T07:34:55;3.83;;;2.40;;
57826;SDS011;43656;57.746;11.780;2023-07-29T07:37:21;4.47;;;2.38;;
57826;SDS011;43656;57.746;11.780;2023-07-29T07:39:46;5.30;;;1.98;;
57826;SDS011;43656;57.746;11.780;2023-07-29T07:42:12;6.65;;;2.60;;
57826;SDS011;43656;57.746;11.780;2023-07-29T07:44:37;4.75;;;2.13;;
57826;SDS011;43656;57.746;11.780;2023-07-29T07:47:02;3.25;;;2.28;;
57826;SDS011;43656;57.746;11.780;2023-07-29T07:49:28;2.78;;;2.10;;
57826;SDS011;43656;57.746;11.780;2023-07-29T07:51:54;3.60;;;2.10;;
57826;SDS011;43656;57.746;11.780;2023-07-29T07:54:19;4.03;;;2.25;;
57826;SDS011;43656;57.746;11.780;2023-07-29T07:56:44;8.75;;;3.65;;
57826;SDS011;43656;57.746;11.780;2023-07-29T07:59:11;5.38;;;2.88;;
57826;SDS011;43656;57.746;11.780;2023-07-29T08:01:37;4.93;;;2.70;;
57826;SDS011;43656;57.746;11.780;2023-07-29T08:04:03;3.50;;;2.75;;
57826;SDS011;43656;57.746;11.780;2023-07-29T08:06:29;5.85;;;2.88;;
57826;SDS011;43656;57.746;11.780;2023-07-29T08:08:55;4.80;;;2.95;;
57826;SDS011;43656;57.746;11.780;2023-07-29T08:11:21;5.68;;;3.05;;
57826;SDS011;43656;57.746;11.780;2023-07-29T08:13:46;6.93;;;3.20;;
57826;SDS011;43656;57.746;11.780;2023-07-29T08:16:12;6.78;;;3.15;;
57826;SDS011;43656;57.746;11.780;2023-07-29T08:18:37;8.18;;;3.35;;
57826;SDS011;43656;57.746;11.780;2023-07-29T08:21:03;4.30;;;3.30;;
57826;SDS011;43656;57.746;11.780;2023-07-29T08:23:32;4.82;;;2.92;;
57826;SDS011;43656;57.746;11.780;2023-07-29T08:25:58;5.78;;;2.83;;
57826;SDS011;43656;57.746;11.780;2023-07-29T08:28:27;5.63;;;2.72;;
57826;SDS011;43656;57.746;11.780;2023-07-29T08:30:53;5.05;;;2.60;;
57826;SDS011;43656;57.746;11.780;2023-07-29T08:33:19;6.82;;;3.05;;
57826;SDS011;43656;57.746;11.780;2023-07-29T08:35:44;6.30;;;2.92;;
57826;SDS011;43656;57.746;11.780;2023-07-29T08:38:09;4.28;;;2.65;;
57826;SDS011;43656;57.746;11.780;2023-07-29T08:40:35;4.50;;;2.60;;
57826;SDS011;43656;57.746;11.780;2023-07-29T08:43:07;4.45;;;2.70;;
57826;SDS011;43656;57.746;11.780;2023-07-29T08:45:34;4.25;;;2.50;;
57826;SDS011;43656;57.746;11.780;2023-07-29T08:48:07;3.78;;;2.40;;
57826;SDS011;43656;57.746;11.780;2023-07-29T08:50:34;4.70;;;2.50;;
57826;SDS011;43656;57.746;11.780;2023-07-29T08:53:01;5.82;;;2.67;;
57826;SDS011;43656;57.746;11.780;2023-07-29T08:55:28;5.68;;;2.63;;
57826;SDS011;43656;57.746;11.780;2023-07-29T08:57:55;6.20;;;2.95;;
57826;SDS011;43656;57.746;11.780;2023-07-29T09:00:21;5.00;;;3.05;;
57826;SDS011;43656;57.746;11.780;2023-07-29T09:02:47;4.13;;;2.47;;
57826;SDS011;43656;57.746;11.780;2023-07-29T09:05:13;5.13;;;2.90;;
57826;SDS011;43656;57.746;11.780;2023-07-29T09:07:38;4.78;;;2.22;;
57826;SDS011;43656;57.746;11.780;2023-07-29T09:10:08;4.30;;;2.70;;
57826;SDS011;43656;57.746;11.780;2023-07-29T09:12:34;3.72;;;2.40;;
57826;SDS011;43656;57.746;11.780;2023-07-29T09:14:59;4.75;;;2.58;;
57826;SDS011;43656;57.746;11.780;2023-07-29T09:17:25;5.93;;;2.40;;
57826;SDS011;43656;57.746;11.780;2023-07-29T09:19:50;5.95;;;2.78;;
57826;SDS011;43656;57.746;11.780;2023-07-29T09:22:19;4.35;;;2.75;;
57826;SDS011;43656;57.746;11.780;2023-07-29T09:24:46;6.50;;;2.42;;
57826;SDS011;43656;57.746;11.780;2023-07-29T09:27:24;5.45;;;2.45;;
57826;SDS011;43656;57.746;11.780;2023-07-29T09:29:51;4.50;;;2.45;;
57826;SDS011;43656;57.746;11.780;2023-07-29T09:32:18;6.38;;;2.65;;
57826;SDS011;43656;57.746;11.780;2023-07-29T09:34:47;6.85;;;2.40;;
57826;SDS011;43656;57.746;11.780;2023-07-29T09:37:31;6.07;;;2.45;;
57826;SDS011;43656;57.746;11.780;2023-07-29T09:39:57;5.75;;;2.42;;
57826;SDS011;43656;57.746;11.780;2023-07-29T09:42:22;4.28;;;2.30;;
57826;SDS011;43656;57.746;11.780;2023-07-29T09:44:49;5.20;;;2.30;;
57826;SDS011;43656;57.746;11.780;2023-07-29T09:47:19;6.28;;;2.55;;
57826;SDS011;43656;57.746;11.780;2023-07-29T09:49:48;6.15;;;2.70;;
57826;SDS011;43656;57.746;11.780;2023-07-29T09:52:16;5.72;;;2.58;;
57826;SDS011;43656;57.746;11.780;2023-07-29T09:54:42;7.22;;;3.10;;
57826;SDS011;43656;57.746;11.780;2023-07-29T09:57:09;4.80;;;2.38;;
57826;SDS011;43656;57.746;11.780;2023-07-29T10:00:02;5.75;;;2.70;;
57826;SDS011;43656;57.746;11.780;2023-07-29T10:02:31;5.85;;;3.10;;
57826;SDS011;43656;57.746;11.780;2023-07-29T10:04:56;5.28;;;2.45;;
57826;SDS011;43656;57.746;11.780;2023-07-29T10:07:24;6.65;;;2.63;;
57826;SDS011;43656;57.746;11.780;2023-07-29T10:09:51;7.85;;;3.00;;
57826;SDS011;43656;57.746;11.780;2023-07-29T10:12:17;4.78;;;2.72;;
57826;SDS011;43656;57.746;11.780;2023-07-29T10:14:44;5.97;;;2.40;;
57826;SDS011;43656;57.746;11.780;2023-07-29T10:17:12;8.60;;;2.80;;
57826;SDS011;43656;57.746;11.780;2023-07-29T10:19:40;5.95;;;3.00;;
57826;SDS011;43656;57.746;11.780;2023-07-29T10:22:07;7.35;;;3.17;;
57826;SDS011;43656;57.746;11.780;2023-07-29T10:24:35;6.70;;;2.53;;
57826;SDS011;43656;57.746;11.780;2023-07-29T10:27:06;7.22;;;3.03;;
57826;SDS011;43656;57.746;11.780;2023-07-29T10:29:35;7.57;;;3.42;;
57826;SDS011;43656;57.746;11.780;2023-07-29T10:32:04;8.07;;;3.78;;
57826;SDS011;43656;57.746;11.780;2023-07-29T10:34:30;6.82;;;3.50;;
57826;SDS011;43656;57.746;11.780;2023-07-29T10:36:58;8.82;;;2.97;;
57826;SDS011;43656;57.746;11.780;2023-07-29T10:39:24;7.22;;;3.50;;
57826;SDS011;43656;57.746;11.780;2023-07-29T10:42:00;6.18;;;3.35;;
57826;SDS011;43656;57.746;11.780;2023-07-29T10:47:14;6.72;;;3.92;;
57826;SDS011;43656;57.746;11.780;2023-07-29T10:49:40;6.38;;;4.10;;
57826;SDS011;43656;57.746;11.780;2023-07-29T10:52:06;6.28;;;4.00;;
57826;SDS011;43656;57.746;11.780;2023-07-29T10:54:31;5.90;;;3.85;;
57826;SDS011;43656;57.746;11.780;2023-07-29T10:57:31;5.93;;;4.03;;
57826;SDS011;43656;57.746;11.780;2023-07-29T11:00:01;5.85;;;3.45;;
57826;SDS011;43656;57.746;11.780;2023-07-29T11:02:32;7.88;;;3.38;;
57826;SDS011;43656;57.746;11.780;2023-07-29T11:05:04;5.40;;;3.50;;
57826;SDS011;43656;57.746;11.780;2023-07-29T11:07:31;4.00;;;3.00;;
57826;SDS011;43656;57.746;11.780;2023-07-29T11:10:08;5.85;;;3.28;;
57826;SDS011;43656;57.746;11.780;2023-07-29T11:17:35;4.70;;;3.00;;
57826;SDS011;43656;57.746;11.780;2023-07-29T11:20:01;3.55;;;2.80;;
57826;SDS011;43656;57.746;11.780;2023-07-29T11:22:28;5.50;;;3.20;;
57826;SDS011;43656;57.746;11.780;2023-07-29T11:24:54;4.78;;;2.60;;
57826;SDS011;43656;57.746;11.780;2023-07-29T11:27:20;5.32;;;2.60;;
57826;SDS011;43656;57.746;11.780;2023-07-29T11:29:46;4.70;;;2.60;;
57826;SDS011;43656;57.746;11.780;2023-07-29T11:32:12;3.67;;;2.45;;
57826;SDS011;43656;57.746;11.780;2023-07-29T11:34:38;4.07;;;2.35;;
57826;SDS011;43656;57.746;11.780;2023-07-29T11:37:05;4.82;;;2.28;;
57826;SDS011;43656;57.746;11.780;2023-07-29T11:39:39;6.05;;;2.67;;
57826;SDS011;43656;57.746;11.780;2023-07-29T11:42:10;2.40;;;2.10;;
57826;SDS011;43656;57.746;11.780;2023-07-29T11:44:36;4.32;;;2.40;;
57826;SDS011;43656;57.746;11.780;2023-07-29T11:47:02;6.22;;;2.10;;
57826;SDS011;43656;57.746;11.780;2023-07-29T11:49:27;3.05;;;2.05;;
57826;SDS011;43656;57.746;11.780;2023-07-29T11:51:52;4.45;;;2.10;;
57826;SDS011;43656;57.746;11.780;2023-07-29T11:54:18;2.45;;;1.77;;
57826;SDS011;43656;57.746;11.780;2023-07-29T11:56:48;2.47;;;1.60;;
57826;SDS011;43656;57.746;11.780;2023-07-29T11:59:14;4.28;;;1.65;;
57826;SDS011;43656;57.746;11.780;2023-07-29T12:01:40;2.08;;;1.60;;
57826;SDS011;43656;57.746;11.780;2023-07-29T12:04:05;2.20;;;1.40;;
57826;SDS011;43656;57.746;11.780;2023-07-29T12:06:31;3.13;;;1.52;;
57826;SDS011;43656;57.746;11.780;2023-07-29T12:08:57;2.00;;;1.60;;
57826;SDS011;43656;57.746;11.780;2023-07-29T12:11:23;2.38;;;1.33;;
57826;SDS011;43656;57.746;11.780;2023-07-29T12:13:48;1.98;;;1.50;;
57826;SDS011;43656;57.746;11.780;2023-07-29T12:16:17;1.60;;;1.30;;
57826;SDS011;43656;57.746;11.780;2023-07-29T12:18:45;1.95;;;1.15;;
57826;SDS011;43656;57.746;11.780;2023-07-29T12:21:11;1.20;;;1.10;;
57826;SDS011;43656;57.746;11.780;2023-07-29T12:23:39;1.60;;;1.30;;
57826;SDS011;43656;57.746;11.780;2023-07-29T12:26:05;2.28;;;1.17;;
57826;SDS011;43656;57.746;11.780;2023-07-29T12:28:30;1.55;;;1.10;;
57826;SDS011;43656;57.746;11.780;2023-07-29T12:30:56;0.90;;;0.90;;
57826;SDS011;43656;57.746;11.780;2023-07-29T12:36:07;1.30;;;0.90;;
57826;SDS011;43656;57.746;11.780;2023-07-29T12:38:33;0.90;;;0.80;;
57826;SDS011;43656;57.746;11.780;2023-07-29T12:40:58;0.93;;;0.70;;
57826;SDS011;43656;57.746;11.780;2023-07-29T12:43:24;1.63;;;0.90;;
57826;SDS011;43656;57.746;11.780;2023-07-29T12:45:50;1.13;;;0.88;;
57826;SDS011;43656;57.746;11.780;2023-07-29T12:48:16;0.80;;;0.80;;
57826;SDS011;43656;57.746;11.780;2023-07-29T12:50:42;0.73;;;0.70;;
57826;SDS011;43656;57.746;11.780;2023-07-29T12:53:08;1.75;;;1.30;;
57826;SDS011;43656;57.746;11.780;2023-07-29T12:55:37;2.50;;;1.00;;
57826;SDS011;43656;57.746;11.780;2023-07-29T12:58:02;1.90;;;0.70;;
57826;SDS011;43656;57.746;11.780;2023-07-29T13:00:28;0.88;;;0.80;;
57826;SDS011;43656;57.746;11.780;2023-07-29T13:02:54;2.78;;;1.00;;
57826;SDS011;43656;57.746;11.780;2023-07-29T13:05:19;1.00;;;0.93;;
57826;SDS011;43656;57.746;11.780;2023-07-29T13:07:45;1.42;;;1.00;;
57826;SDS011;43656;57.746;11.780;2023-07-29T13:10:11;1.05;;;0.90;;
57826;SDS011;43656;57.746;11.780;2023-07-29T13:12:38;2.08;;;0.75;;
57826;SDS011;43656;57.746;11.780;2023-07-29T13:15:03;0.85;;;0.80;;
57826;SDS011;43656;57.746;11.780;2023-07-29T13:17:29;0.88;;;0.70;;
57826;SDS011;43656;57.746;11.780;2023-07-29T13:19:55;1.50;;;1.00;;
57826;SDS011;43656;57.746;11.780;2023-07-29T13:22:20;1.08;;;0.90;;
57826;SDS011;43656;57.746;11.780;2023-07-29T13:24:46;2.63;;;1.10;;
57826;SDS011;43656;57.746;11.780;2023-07-29T13:27:12;1.20;;;1.10;;
57826;SDS011;43656;57.746;11.780;2023-07-29T13:29:37;2.15;;;1.95;;
57826;SDS011;43656;57.746;11.780;2023-07-29T13:32:03;7.60;;;1.45;;
57826;SDS011;43656;57.746;11.780;2023-07-29T13:34:28;2.78;;;1.10;;
57826;SDS011;43656;57.746;11.780;2023-07-29T13:36:54;1.70;;;1.00;;
57826;SDS011;43656;57.746;11.780;2023-07-29T13:39:19;2.88;;;0.98;;
57826;SDS011;43656;57.746;11.780;2023-07-29T13:41:44;2.28;;;1.05;;
57826;SDS011;43656;57.746;11.780;2023-07-29T13:44:13;1.40;;;0.93;;
57826;SDS011;43656;57.746;11.780;2023-07-29T13:46:38;1.27;;;0.98;;
57826;SDS011;43656;57.746;11.780;2023-07-29T13:49:04;1.58;;;0.98;;
57826;SDS011;43656;57.746;11.780;2023-07-29T13:51:29;3.10;;;1.10;;
57826;SDS011;43656;57.746;11.780;2023-07-29T13:53:55;1.00;;;0.90;;
57826;SDS011;43656;57.746;11.780;2023-07-29T13:56:21;2.13;;;1.20;;
57826;SDS011;43656;57.746;11.780;2023-07-29T13:58:46;2.90;;;1.10;;
57826;SDS011;43656;57.746;11.780;2023-07-29T14:01:12;1.05;;;0.93;;
57826;SDS011;43656;57.746;11.780;2023-07-29T14:03:37;1.20;;;1.02;;
57826;SDS011;43656;57.746;11.780;2023-07-29T14:06:03;1.00;;;0.90;;
57826;SDS011;43656;57.746;11.780;2023-07-29T14:08:28;1.48;;;1.00;;
57826;SDS011;43656;57.746;11.780;2023-07-29T14:10:54;1.65;;;1.10;;
57826;SDS011;43656;57.746;11.780;2023-07-29T14:13:19;1.98;;;1.63;;
57826;SDS011;43656;57.746;11.780;2023-07-29T14:15:44;1.75;;;0.93;;
57826;SDS011;43656;57.746;11.780;2023-07-29T14:18:10;3.85;;;1.77;;
57826;SDS011;43656;57.746;11.780;2023-07-29T14:20:35;1.40;;;1.20;;
57826;SDS011;43656;57.746;11.780;2023-07-29T14:23:01;1.13;;;0.95;;
57826;SDS011;43656;57.746;11.780;2023-07-29T14:25:26;2.47;;;0.90;;
57826;SDS011;43656;57.746;11.780;2023-07-29T14:27:52;1.77;;;1.00;;
57826;SDS011;43656;57.746;11.780;2023-07-29T14:30:17;1.08;;;0.98;;
57826;SDS011;43656;57.746;11.780;2023-07-29T14:32:43;3.75;;;1.00;;
57826;SDS011;43656;57.746;11.780;2023-07-29T14:35:08;1.42;;;1.08;;
57826;SDS011;43656;57.746;11.780;2023-07-29T14:37:34;1.75;;;1.00;;
57826;SDS011;43656;57.746;11.780;2023-07-29T14:40:00;2.47;;;1.20;;
57826;SDS011;43656;57.746;11.780;2023-07-29T14:42:26;1.73;;;1.17;;
57826;SDS011;43656;57.746;11.780;2023-07-29T14:44:52;1.15;;;0.90;;